Time;durP1;ratioP1;P1;durP2;ratioP2;P2;SDS_P1;SDS_P2;PMS_P1;PMS_P2;Temp;Humidity;BMP_temperature;BMP_pressure;BME280_temperature;BME280_humidity;BME280_pressure;Samples;Min_cycle;Max_cycle;Signal;HPM_P1;HPM_P2
2022/12/04 00:01:43;;;;;;;28.37;17.37;;;;;;;0.93;58.65;99723.97;10364230;28;20605;-29
2022/12/04 00:06:45;;;;;;;24.73;15.10;;;;;;;1.28;57.65;99715.00;10363194;28;20230;-28
2022/12/04 00:11:47;;;;;;;26.83;17.03;;;;;;;1.14;57.87;99708.22;10347371;28;20335;-27
2022/12/04 00:16:49;;;;;;;23.63;15.10;;;;;;;0.72;58.56;99717.78;10355051;28;20242;-28
2022/12/04 00:21:51;;;;;;;26.47;15.13;;;;;;;1.35;57.47;99705.66;10342191;28;20311;-30
2022/12/04 00:26:53;;;;;;;24.73;14.33;;;;;;;0.84;57.78;99701.81;10353306;28;20238;-29
2022/12/04 00:31:54;;;;;;;24.63;14.00;;;;;;;0.39;59.13;99698.41;10359626;28;20247;-28
2022/12/04 00:36:56;;;;;;;23.73;14.67;;;;;;;0.59;58.64;99675.78;10348572;28;20266;-29
2022/12/04 00:41:58;;;;;;;25.47;15.80;;;;;;;0.91;58.03;99686.38;10359767;28;20239;-29
2022/12/04 00:46:59;;;;;;;24.37;14.23;;;;;;;0.46;58.91;99694.34;10347448;28;20244;-29
2022/12/04 00:52:01;;;;;;;21.40;13.10;;;;;;;1.54;57.20;99686.53;10358867;28;20273;-29
2022/12/04 00:57:03;;;;;;;27.87;15.13;;;;;;;1.71;56.78;99693.03;10352913;28;20725;-29
2022/12/04 01:02:05;;;;;;;25.63;15.17;;;;;;;1.21;57.52;99683.03;10357223;28;20240;-28
2022/12/04 01:07:06;;;;;;;27.17;15.43;;;;;;;1.55;56.36;99666.25;10352138;28;20235;-29
2022/12/04 01:12:08;;;;;;;23.67;14.00;;;;;;;0.67;58.79;99697.91;10357717;28;20269;-28
2022/12/04 01:17:10;;;;;;;23.70;14.13;;;;;;;1.17;56.43;99701.84;10355478;28;20261;-29
2022/12/04 01:22:11;;;;;;;24.67;14.10;;;;;;;0.16;58.96;99700.19;10357181;28;20234;-29
2022/12/04 01:27:13;;;;;;;25.43;14.70;;;;;;;0.71;57.87;99701.13;10359186;28;20233;-29
2022/12/04 01:32:15;;;;;;;26.53;13.63;;;;;;;0.94;57.92;99701.94;10356494;28;20269;-29
2022/12/04 01:37:17;;;;;;;24.23;15.03;;;;;;;1.78;56.48;99680.16;10355609;28;20226;-29
2022/12/04 01:42:19;;;;;;;26.00;16.57;;;;;;;1.11;57.60;99684.75;10346001;28;20246;-29
2022/12/04 01:47:20;;;;;;;24.60;15.53;;;;;;;1.35;57.47;99681.09;10348479;28;20748;-29
2022/12/04 01:52:25;;;;;;;25.83;16.47;;;;;;;1.94;57.42;99679.69;10356150;28;20231;-28
2022/12/04 01:57:31;;;;;;;29.23;15.83;;;;;;;2.08;56.22;99675.84;10354949;28;20378;-29
2022/12/04 02:02:38;;;;;;;24.00;15.13;;;;;;;1.75;56.16;99660.13;10356063;28;20231;-29
2022/12/04 02:07:43;;;;;;;26.03;16.60;;;;;;;0.90;57.90;99676.81;10349336;28;20327;-28
2022/12/04 02:13:10;;;;;;;26.57;15.73;;;;;;;0.82;57.85;99693.22;10333103;28;20313;-29
2022/12/04 02:18:25;;;;;;;24.33;15.63;;;;;;;1.34;58.17;99680.25;10341685;28;20246;-29
2022/12/04 02:23:50;;;;;;;23.53;14.97;;;;;;;1.94;56.58;99669.13;10357330;28;20241;-27
2022/12/04 02:29:06;;;;;;;26.03;15.37;;;;;;;1.83;57.38;99674.47;10345234;28;20229;-29
2022/12/04 02:34:13;;;;;;;20.93;13.97;;;;;;;2.35;56.00;99672.66;10348241;28;20233;-29
2022/12/04 02:39:24;;;;;;;23.83;14.80;;;;;;;2.40;55.75;99672.22;10353038;28;20246;-28
2022/12/04 02:44:38;;;;;;;25.23;14.70;;;;;;;1.00;57.42;99697.97;10342941;28;20244;-29
2022/12/04 02:49:48;;;;;;;22.90;14.10;;;;;;;1.17;57.99;99693.94;10352249;28;20240;-30
2022/12/04 02:54:56;;;;;;;23.20;15.47;;;;;;;1.23;57.85;99678.47;10345391;28;20615;-28
2022/12/04 03:00:00;;;;;;;20.97;13.47;;;;;;;1.97;56.08;99651.22;10352740;28;20245;-29
2022/12/04 03:05:08;;;;;;;24.67;15.17;;;;;;;2.63;55.54;99668.41;10348489;28;20775;-28
2022/12/04 03:10:23;;;;;;;24.03;14.97;;;;;;;1.21;57.59;99671.66;10356753;28;21137;-29
2022/12/04 03:15:34;;;;;;;23.50;15.17;;;;;;;1.20;58.27;99677.88;10354247;28;20227;-28
2022/12/04 03:20:37;;;;;;;23.67;15.17;;;;;;;0.99;57.98;99672.59;10354845;28;20688;-28
2022/12/04 03:25:52;;;;;;;24.53;14.80;;;;;;;2.00;56.56;99654.59;10353714;28;20237;-29
2022/12/04 03:30:59;;;;;;;21.23;14.07;;;;;;;1.77;56.98;99657.38;10355780;28;20237;-28
2022/12/04 03:36:27;;;;;;;19.20;13.03;;;;;;;1.95;56.36;99637.31;10353947;28;20311;-29
2022/12/04 03:41:58;;;;;;;21.23;14.13;;;;;;;1.72;57.34;99655.09;10345461;28;20242;-29
2022/12/04 03:47:09;;;;;;;19.17;13.33;;;;;;;1.20;57.28;99660.28;10357454;28;20239;-29
2022/12/04 03:52:23;;;;;;;20.43;13.97;;;;;;;0.89;57.38;99663.75;10344987;28;20246;-28
2022/12/04 03:57:31;;;;;;;20.87;12.57;;;;;;;1.81;56.29;99658.78;10360957;28;20239;-29
2022/12/04 04:02:38;;;;;;;23.77;13.50;;;;;;;1.57;56.16;99625.59;10361696;28;20231;-29
2022/12/04 04:08:25;;;;;;;20.90;13.00;;;;;;;0.94;57.50;99658.94;10361585;28;20297;-27
2022/12/04 04:24:35;;;;;;;17.40;12.27;;;;;;;1.59;56.10;99646.56;10358423;28;20246;-29
2022/12/04 04:29:38;;;;;;;21.37;13.67;;;;;;;1.08;57.40;99669.19;10359813;28;20237;-29
2022/12/04 04:34:52;;;;;;;20.40;13.43;;;;;;;1.20;56.48;99673.47;10360715;28;20612;-29
2022/12/04 04:40:05;;;;;;;21.33;13.00;;;;;;;1.35;56.77;99654.72;10359356;28;20241;-28
2022/12/04 04:45:22;;;;;;;18.20;12.93;;;;;;;1.60;56.05;99645.59;10354062;28;20248;-29
2022/12/04 04:50:24;;;;;;;20.10;13.53;;;;;;;1.45;56.78;99671.44;10358003;28;20239;-29
2022/12/04 04:55:27;;;;;;;19.80;12.93;;;;;;;1.91;56.48;99658.81;10360545;28;20247;-29
2022/12/04 05:00:29;;;;;;;17.77;12.17;;;;;;;1.90;56.24;99673.00;10357987;28;20644;-28
2022/12/04 05:05:31;;;;;;;18.70;12.77;;;;;;;1.56;56.65;99675.84;10359983;28;20232;-28
2022/12/04 05:10:32;;;;;;;17.77;12.73;;;;;;;2.46;55.26;99666.41;10360073;28;20268;-29
2022/12/04 05:15:34;;;;;;;21.97;13.83;;;;;;;1.88;55.68;99682.84;10357522;28;20832;-27
2022/12/04 05:20:39;;;;;;;17.13;12.27;;;;;;;1.55;56.22;99693.47;10357574;28;20673;-27
2022/12/04 05:25:41;;;;;;;19.00;12.50;;;;;;;2.04;55.49;99667.34;10357491;28;20233;-29
2022/12/04 05:30:43;;;;;;;18.10;11.83;;;;;;;1.77;56.25;99687.22;10357654;28;20237;-29
2022/12/04 05:35:44;;;;;;;17.90;11.70;;;;;;;1.83;55.51;99671.81;10353834;28;20233;-29
2022/12/04 05:40:46;;;;;;;19.17;12.27;;;;;;;1.69;55.73;99679.13;10357581;28;20243;-29
2022/12/04 05:45:48;;;;;;;20.17;13.20;;;;;;;1.54;56.33;99705.00;10359769;28;20243;-29
2022/12/04 05:50:49;;;;;;;19.53;12.97;;;;;;;1.98;55.96;99695.13;10354643;28;20238;-29
2022/12/04 05:55:56;;;;;;;18.53;11.93;;;;;;;2.98;54.02;99688.25;10348610;28;20240;-29
2022/12/04 06:00:58;;;;;;;17.27;12.40;;;;;;;1.54;56.66;99702.34;10355409;28;20728;-29
2022/12/04 06:06:00;;;;;;;19.60;12.97;;;;;;;1.47;56.84;99693.25;10356859;28;20371;-29
2022/12/04 06:11:12;;;;;;;18.37;11.80;;;;;;;1.34;56.96;99696.09;10357619;28;20248;-29
2022/12/04 06:16:25;;;;;;;19.40;12.70;;;;;;;1.49;56.94;99691.34;10359609;28;20265;-29
2022/12/04 06:21:30;;;;;;;19.27;12.27;;;;;;;1.95;56.34;99681.34;10353473;28;20894;-29
2022/12/04 06:26:32;;;;;;;20.57;12.30;;;;;;;1.31;56.20;99687.56;10340397;28;20317;-29
2022/12/04 06:31:35;;;;;;;18.57;12.53;;;;;;;1.69;55.93;99658.03;10355817;28;20235;-29
2022/12/04 06:36:36;;;;;;;16.83;10.43;;;;;;;1.51;56.88;99688.59;10354944;28;20265;-29
2022/12/04 06:41:38;;;;;;;18.80;11.80;;;;;;;1.59;56.80;99696.66;10360789;28;20242;-29
2022/12/04 06:46:40;;;;;;;18.53;12.00;;;;;;;1.96;56.06;99681.22;10354562;28;20238;-29
2022/12/04 06:51:47;;;;;;;18.37;11.63;;;;;;;0.96;58.06;99694.72;10354479;28;20748;-29
2022/12/04 06:56:49;;;;;;;16.80;11.73;;;;;;;1.69;57.06;99705.50;10355366;28;20235;-29
2022/12/04 07:01:51;;;;;;;17.90;12.53;;;;;;;2.11;55.86;99697.56;10354952;28;20888;-29
2022/12/04 07:06:53;;;;;;;18.50;11.40;;;;;;;1.83;56.53;99696.44;10346392;28;20705;-29
2022/12/04 07:11:55;;;;;;;18.40;12.70;;;;;;;1.90;55.82;99689.66;10356404;28;20236;-29
2022/12/04 07:16:57;;;;;;;18.87;11.90;;;;;;;2.42;55.34;99684.34;10352884;28;20260;-27
2022/12/04 07:21:59;;;;;;;18.60;12.27;;;;;;;2.61;55.59;99685.38;10358795;28;20235;-29
2022/12/04 07:27:01;;;;;;;16.90;11.63;;;;;;;1.43;57.12;99697.13;10361242;28;20906;-29
2022/12/04 07:32:02;;;;;;;18.60;11.93;;;;;;;2.86;55.60;99676.13;10359283;28;20239;-28
2022/12/04 07:37:04;;;;;;;16.57;12.10;;;;;;;2.39;55.03;99670.56;10361722;28;20270;-28
2022/12/04 07:42:06;;;;;;;20.57;12.80;;;;;;;2.87;55.04;99688.34;10369999;28;20243;-28
2022/12/04 07:47:07;;;;;;;17.70;11.70;;;;;;;1.54;57.56;99690.94;10359069;28;20228;-29
2022/12/04 07:52:09;;;;;;;21.27;12.43;;;;;;;2.50;55.97;99688.94;10360297;28;20243;-29
2022/12/04 07:57:11;;;;;;;18.77;11.57;;;;;;;3.23;54.64;99701.94;10361437;28;20254;-29
2022/12/04 08:02:12;;;;;;;20.50;12.07;;;;;;;2.11;55.66;99681.72;10360182;28;20240;-29
2022/12/04 08:07:14;;;;;;;20.03;12.43;;;;;;;2.77;55.09;99688.34;10361339;28;20235;-29
2022/12/04 08:12:16;;;;;;;20.53;12.33;;;;;;;2.79;55.28;99690.81;10362629;28;20237;-29
2022/12/04 08:17:17;;;;;;;18.37;11.53;;;;;;;3.43;53.83;99703.59;10359780;28;20236;-29
2022/12/04 08:22:20;;;;;;;18.70;11.50;;;;;;;2.87;54.74;99672.47;10356345;28;20667;-29
2022/12/04 08:27:26;;;;;;;16.07;11.10;;;;;;;2.51;56.00;99699.38;10359570;28;20276;-29
2022/12/04 08:32:27;;;;;;;17.73;12.17;;;;;;;2.58;54.87;99690.94;10359653;28;20338;-29
2022/12/04 08:37:29;;;;;;;17.67;12.10;;;;;;;3.02;54.75;99686.19;10358638;28;20731;-29
2022/12/04 08:42:31;;;;;;;19.97;12.67;;;;;;;2.04;56.90;99685.84;10362051;28;20244;-28
2022/12/04 08:47:32;;;;;;;19.17;11.87;;;;;;;2.61;55.40;99678.28;10350217;28;20247;-29
2022/12/04 08:52:34;;;;;;;16.10;11.07;;;;;;;2.12;56.70;99670.19;10359973;28;20243;-29
2022/12/04 08:57:36;;;;;;;18.43;12.23;;;;;;;2.77;55.69;99691.00;10359117;28;20247;-29
2022/12/04 09:02:37;;;;;;;18.73;12.10;;;;;;;3.89;53.78;99717.06;10359383;28;20246;-30
2022/12/04 09:07:39;;;;;;;18.27;12.47;;;;;;;2.89;55.09;99705.75;10358002;28;20242;-29
2022/12/04 09:12:41;;;;;;;17.50;11.97;;;;;;;3.83;54.10;99731.72;10346716;28;20271;-29
2022/12/04 09:17:42;;;;;;;18.60;11.67;;;;;;;2.43;54.99;99712.41;10357228;28;20236;-29
2022/12/04 09:22:44;;;;;;;25.43;13.77;;;;;;;2.38;56.18;99721.72;10358669;28;20240;-29
2022/12/04 09:28:04;;;;;;;17.70;11.23;;;;;;;2.97;55.72;99725.41;10354078;28;20236;-29
2022/12/04 09:33:06;;;;;;;17.87;12.73;;;;;;;2.08;57.54;99729.50;10347810;28;20244;-29
2022/12/04 09:38:08;;;;;;;21.20;13.17;;;;;;;1.96;57.63;99722.59;10357164;28;20240;-30
2022/12/04 09:43:34;;;;;;;18.10;12.17;;;;;;;2.47;56.37;99703.28;10356449;28;20643;-29
2022/12/04 09:48:40;;;;;;;23.43;13.27;;;;;;;2.38;56.86;99700.59;10356702;28;20242;-29
2022/12/04 09:53:46;;;;;;;20.33;11.37;;;;;;;2.77;56.31;99692.78;10357712;28;20242;-29
2022/12/04 09:58:54;;;;;;;24.03;13.30;;;;;;;2.87;56.12;99694.50;10355386;28;20238;-29
2022/12/04 10:03:56;;;;;;;18.60;12.20;;;;;;;2.47;56.33;99691.88;10357743;28;20951;-29
2022/12/04 10:09:21;;;;;;;20.43;13.57;;;;;;;2.68;56.13;99673.28;10357264;28;21256;-29
2022/12/04 10:14:50;;;;;;;22.07;13.77;;;;;;;3.50;55.04;99684.53;10342928;28;20861;-29
2022/12/04 10:20:25;;;;;;;19.33;13.23;;;;;;;2.71;55.79;99663.28;10355105;28;20239;-29
2022/12/04 10:25:29;;;;;;;21.10;13.90;;;;;;;2.66;56.31;99668.13;10357039;28;20240;-29
2022/12/04 10:30:35;;;;;;;19.87;12.93;;;;;;;4.14;53.72;99690.94;10354501;28;20263;-29
2022/12/04 10:35:40;;;;;;;19.40;13.17;;;;;;;3.40;54.21;99652.78;10356537;28;20764;-29
2022/12/04 10:41:32;;;;;;;23.30;13.80;;;;;;;3.71;54.91;99673.75;10366980;28;20247;-29
2022/12/04 10:46:35;;;;;;;20.10;13.43;;;;;;;3.76;54.55;99677.66;10326230;28;20621;-29
2022/12/04 10:51:41;;;;;;;19.87;12.93;;;;;;;2.67;56.14;99674.25;10364229;28;20274;-29
2022/12/04 10:56:52;;;;;;;21.23;13.73;;;;;;;3.51;55.07;99663.19;10362284;28;20239;-29
2022/12/04 11:06:35;;;;;;;18.50;12.30;;;;;;;2.44;58.38;99618.19;10238142;27;8216629;-67
2022/12/04 11:11:43;;;;;;;22.10;12.80;;;;;;;2.30;58.16;99622.88;10487320;28;21207;-67
2022/12/04 11:17:17;;;;;;;19.80;12.60;;;;;;;2.51;57.91;99616.66;10491678;28;20237;-68
2022/12/04 11:22:25;;;;;;;21.63;13.60;;;;;;;1.32;59.63;99628.59;10478785;28;20254;-68
2022/12/04 11:27:35;;;;;;;19.10;13.03;;;;;;;2.72;57.28;99612.13;10479420;28;20233;-68
2022/12/04 11:32:44;;;;;;;21.73;14.20;;;;;;;1.75;58.74;99610.00;10475871;28;20230;-68
2022/12/04 11:37:57;;;;;;;20.60;12.27;;;;;;;2.63;56.74;99602.34;10462290;28;20231;-67
2022/12/04 11:43:08;;;;;;;19.93;12.50;;;;;;;2.25;57.60;99619.81;10484637;28;20249;-67
2022/12/04 11:48:17;;;;;;;22.80;12.67;;;;;;;2.30;57.52;99622.03;10501799;28;20288;-68
2022/12/04 11:53:43;;;;;;;19.63;13.10;;;;;;;2.17;57.79;99617.00;10493356;28;20227;-68
2022/12/04 11:59:14;;;;;;;19.67;13.67;;;;;;;2.23;57.47;99620.88;10489462;28;20230;-68
2022/12/04 12:04:35;;;;;;;21.17;13.20;;;;;;;2.65;57.45;99626.84;10526653;28;20254;-68
2022/12/04 12:09:51;;;;;;;19.23;13.43;;;;;;;2.53;56.78;99589.16;10531592;28;20263;-68
2022/12/04 12:15:34;;;;;;;22.27;14.73;;;;;;;3.41;55.87;99604.19;10483103;28;20733;-68
2022/12/04 12:20:51;;;;;;;20.17;13.43;;;;;;;3.31;55.95;99590.13;10478780;28;20269;-67
2022/12/04 12:26:12;;;;;;;21.43;13.83;;;;;;;3.00;56.51;99585.84;10482173;28;20241;-67
2022/12/04 12:31:39;;;;;;;21.03;13.93;;;;;;;2.95;56.03;99579.31;10497448;28;20233;-73
2022/12/04 12:36:53;;;;;;;22.97;14.57;;;;;;;3.83;55.61;99599.34;10483825;28;20222;-69
2022/12/04 12:42:01;;;;;;;21.33;14.23;;;;;;;3.79;54.78;99602.41;10490341;28;20279;-67
2022/12/04 12:47:18;;;;;;;23.10;13.27;;;;;;;3.74;54.65;99600.19;10463857;28;20727;-66
2022/12/04 12:52:37;;;;;;;18.37;14.57;;;;;;;3.35;55.49;99580.97;10479281;28;20216;-69
2022/12/04 12:58:10;;;;;;;24.57;16.13;;;;;;;3.40;55.47;99584.84;10475130;28;20245;-69
2022/12/04 13:04:04;;;;;;;20.70;14.30;;;;;;;3.36;55.99;99601.13;10482403;28;20244;-70
2022/12/04 13:09:38;;;;;;;19.53;12.03;;;;;;;3.06;56.02;99576.53;10448664;28;20230;-68
2022/12/04 13:14:46;;;;;;;18.27;12.33;;;;;;;1.98;59.85;99601.91;10469261;28;20286;-69
2022/12/04 13:19:58;;;;;;;22.03;15.27;;;;;;;1.54;60.44;99567.84;10491379;28;20226;-69
2022/12/04 13:25:49;;;;;;;19.80;13.40;;;;;;;2.13;60.40;99578.59;10504930;28;20230;-69
2022/12/04 13:31:24;;;;;;;22.03;14.10;;;;;;;2.10;60.15;99574.44;9467970;28;10001002;-68
2022/12/04 13:37:11;;;;;;;19.90;13.83;;;;;;;2.42;60.26;99573.41;10356563;28;20278;-68
2022/12/04 13:42:24;;;;;;;22.37;14.47;;;;;;;2.02;60.65;99544.41;10355480;28;20252;-70
2022/12/04 13:47:34;;;;;;;21.17;14.60;;;;;;;1.33;62.14;99548.56;10360415;28;20283;-69
2022/12/04 13:59:25;;;;;;;19.63;14.13;;;;;;;0.76;64.93;99537.47;9555411;27;10000552;-38
2022/12/04 14:04:29;;;;;;;27.60;16.73;;;;;;;0.89;64.48;99534.66;10386805;28;21347;-40
2022/12/04 14:09:40;;;;;;;22.57;15.93;;;;;;;0.90;64.18;99499.41;10382018;28;20243;-36
2022/12/04 14:14:53;;;;;;;29.27;18.40;;;;;;;1.37;63.77;99505.13;10363065;28;20250;-37
2022/12/04 14:19:58;;;;;;;23.20;15.40;;;;;;;2.19;61.28;99479.56;10357661;28;20236;-37
2022/12/04 14:25:11;;;;;;;21.83;14.17;;;;;;;2.79;60.19;99484.69;10372769;28;20239;-36
2022/12/04 14:30:18;;;;;;;22.07;14.13;;;;;;;1.45;62.27;99510.59;10357817;28;20248;-39
2022/12/04 14:35:23;;;;;;;21.53;14.27;;;;;;;2.47;60.30;99480.56;10364201;28;20229;-39
2022/12/04 14:40:35;;;;;;;20.97;13.70;;;;;;;1.68;62.47;99510.44;10363139;28;20391;-43
2022/12/04 14:45:55;;;;;;;20.90;14.07;;;;;;;2.42;61.16;99486.25;10364730;28;20247;-35
2022/12/04 14:51:09;;;;;;;20.10;14.00;;;;;;;1.75;61.65;99487.81;10369079;28;20238;-40
2022/12/04 14:56:11;;;;;;;20.07;14.07;;;;;;;2.04;61.43;99493.16;10361947;28;20240;-38
2022/12/04 15:01:23;;;;;;;22.20;13.87;;;;;;;2.09;61.56;99492.75;10338883;28;20232;-38
2022/12/04 15:06:32;;;;;;;21.57;15.77;;;;;;;1.05;63.24;99513.94;10311330;28;20269;-34
2022/12/04 15:17:03;;;;;;;22.73;15.77;;;;;;;1.33;62.93;99495.84;10316201;28;20238;-39
2022/12/04 15:22:12;;;;;;;22.63;15.33;;;;;;;1.95;62.62;99472.88;10304664;28;20232;-41
2022/12/04 15:27:16;;;;;;;23.73;15.77;;;;;;;1.05;63.23;99470.00;10304559;28;20221;-39
2022/12/04 15:32:21;;;;;;;26.03;16.33;;;;;;;1.63;63.33;99480.97;10321319;28;20240;-37
2022/12/04 15:37:28;;;;;;;28.17;15.87;;;;;;;1.18;63.72;99459.22;10329945;28;20236;-39
2022/12/04 15:42:30;;;;;;;27.67;17.57;;;;;;;0.99;63.52;99465.22;10343739;28;20738;-39
2022/12/04 15:47:49;;;;;;;28.07;17.77;;;;;;;2.01;62.53;99450.34;10329775;28;20684;-37
2022/12/04 15:53:19;;;;;;;26.07;16.27;;;;;;;1.57;62.93;99446.25;10331989;28;20251;-37
2022/12/04 15:58:24;;;;;;;31.30;16.27;;;;;;;2.07;60.28;99452.47;10324901;28;20235;-41
2022/12/04 16:03:33;;;;;;;32.33;19.43;;;;;;;2.65;59.91;99460.41;10333853;28;20241;-39
2022/12/04 16:08:38;;;;;;;27.73;17.13;;;;;;;2.39;60.42;99473.31;10328261;28;20251;-37
2022/12/04 16:13:39;;;;;;;26.67;17.10;;;;;;;2.61;60.69;99487.22;10332108;28;20740;-37
2022/12/04 16:18:44;;;;;;;26.47;16.80;;;;;;;1.57;61.63;99493.72;10340348;28;20244;-38
2022/12/04 16:23:46;;;;;;;31.13;16.10;;;;;;;1.79;62.50;99510.31;10331292;28;20718;-37
2022/12/04 16:28:48;;;;;;;27.43;17.03;;;;;;;2.13;61.84;99480.94;10327162;28;20259;-40
2022/12/04 16:33:50;;;;;;;27.93;16.90;;;;;;;2.05;61.13;99471.06;10328481;28;20237;-38
2022/12/04 16:38:52;;;;;;;27.40;16.20;;;;;;;3.24;58.53;99471.72;10331115;28;20287;-36
2022/12/04 16:43:56;;;;;;;26.70;16.00;;;;;;;2.14;59.72;99469.41;10330025;28;20554;-37
2022/12/04 16:48:58;;;;;;;23.47;15.47;;;;;;;3.05;59.08;99474.41;10346947;28;20686;-39
2022/12/04 16:54:09;;;;;;;24.27;14.30;;;;;;;2.53;60.06;99477.34;10338242;28;20244;-36
2022/12/04 16:59:10;;;;;;;24.60;15.53;;;;;;;1.86;61.65;99487.72;10348390;28;20255;-36
2022/12/04 17:04:14;;;;;;;26.57;16.20;;;;;;;2.17;60.45;99483.16;10353167;28;20260;-34
2022/12/04 17:09:16;;;;;;;26.00;15.33;;;;;;;2.70;60.21;99489.88;10351264;28;20268;-36
2022/12/04 17:14:17;;;;;;;27.53;16.50;;;;;;;1.67;61.47;99487.63;10333640;28;20725;-37
2022/12/04 17:19:19;;;;;;;27.80;16.83;;;;;;;1.72;62.18;99494.19;10322463;28;20737;-38
2022/12/04 17:24:21;;;;;;;27.50;17.90;;;;;;;3.01;59.88;99484.44;10328924;28;20660;-36
2022/12/04 17:29:22;;;;;;;29.57;17.33;;;;;;;3.32;58.56;99494.78;10327509;28;20321;-38
2022/12/04 17:34:24;;;;;;;34.23;18.37;;;;;;;2.23;61.62;99517.91;10329023;28;20253;-37
2022/12/04 17:39:26;;;;;;;29.73;17.00;;;;;;;3.36;59.63;99500.59;10318240;28;20238;-38
2022/12/04 17:44:27;;;;;;;34.57;18.73;;;;;;;2.14;61.20;99507.19;10320884;28;20260;-40
2022/12/04 17:49:29;;;;;;;29.87;19.00;;;;;;;3.40;59.07;99499.38;10324346;28;20781;-36
2022/12/04 17:54:31;;;;;;;31.67;17.83;;;;;;;2.69;60.45;99496.13;10328932;28;20252;-38
2022/12/04 17:59:33;;;;;;;34.17;17.33;;;;;;;2.76;59.93;99501.69;10322295;28;20613;-39
2022/12/04 18:04:35;;;;;;;39.13;21.20;;;;;;;3.75;57.85;99518.97;10330058;28;20716;-40
2022/12/04 18:09:37;;;;;;;39.93;23.53;;;;;;;3.70;57.49;99526.53;10326510;28;20241;-39
2022/12/04 18:14:39;;;;;;;40.00;21.17;;;;;;;3.59;58.35;99533.66;10325440;28;20233;-37
2022/12/04 18:19:40;;;;;;;48.53;24.60;;;;;;;3.33;58.51;99546.72;10321191;28;20268;-37
2022/12/04 18:24:42;;;;;;;40.77;20.40;;;;;;;3.96;57.50;99569.06;10335215;28;20233;-34
2022/12/04 18:29:44;;;;;;;46.90;27.03;;;;;;;2.96;59.21;99544.81;10340324;28;20242;-39
2022/12/04 18:34:45;;;;;;;53.83;29.60;;;;;;;2.50;61.05;99554.22;10341078;28;20643;-39
2022/12/04 18:39:48;;;;;;;31.70;17.87;;;;;;;3.20;60.18;99557.59;10338745;28;20246;-38
2022/12/04 18:44:50;;;;;;;43.27;19.47;;;;;;;3.60;58.83;99551.22;10345508;28;20243;-41
2022/12/04 18:49:51;;;;;;;38.67;20.63;;;;;;;3.10;58.84;99539.09;10347082;28;20320;-39
2022/12/04 18:54:53;;;;;;;41.93;21.07;;;;;;;3.15;59.21;99553.72;10347269;28;20284;-36
2022/12/04 18:59:55;;;;;;;42.30;23.43;;;;;;;4.32;57.16;99607.09;10346677;28;21540;-38
2022/12/04 19:04:57;;;;;;;27.60;17.87;;;;;;;3.73;57.49;99581.81;10348261;28;20733;-39
2022/12/04 19:09:59;;;;;;;29.27;17.07;;;;;;;3.56;57.72;99576.28;10348306;28;20229;-37
2022/12/04 19:15:16;;;;;;;28.23;16.40;;;;;;;2.88;59.45;99566.63;10342625;28;20244;-39
2022/12/04 19:20:20;;;;;;;28.73;15.53;;;;;;;4.13;56.98;99617.75;10345658;28;20260;-37
2022/12/04 19:25:22;;;;;;;24.40;14.40;;;;;;;3.08;58.73;99616.88;10345342;28;20240;-38
2022/12/04 19:30:24;;;;;;;24.20;14.40;;;;;;;4.21;57.05;99620.50;10347007;28;20237;-41
2022/12/04 19:35:25;;;;;;;27.70;15.37;;;;;;;2.60;59.48;99602.63;10346822;28;20726;-37
2022/12/04 19:40:27;;;;;;;26.03;15.73;;;;;;;2.83;60.10;99620.88;10335195;28;20691;-36
2022/12/04 19:45:29;;;;;;;26.73;14.87;;;;;;;4.27;57.23;99646.41;10332507;28;20226;-36
2022/12/04 19:50:32;;;;;;;30.43;15.83;;;;;;;3.17;59.74;99646.94;10331419;28;20247;-37
2022/12/04 19:55:35;;;;;;;27.40;16.50;;;;;;;2.94;59.73;99620.78;10335953;28;20233;-35
2022/12/04 20:00:37;;;;;;;36.53;16.90;;;;;;;2.34;61.96;99636.63;10328430;28;20452;-38
2022/12/04 20:05:38;;;;;;;33.70;16.87;;;;;;;3.11;60.60;99637.78;10332900;28;20236;-36
2022/12/04 20:15:49;;;;;;;29.53;17.53;;;;;;;2.63;60.82;99635.88;10367179;28;20229;-35
2022/12/04 20:20:56;;;;;;;34.80;17.63;;;;;;;2.65;61.15;99633.94;10358492;28;20237;-36
2022/12/04 20:26:03;;;;;;;41.43;20.50;;;;;;;4.20;57.94;99629.44;10350236;28;20233;-36
2022/12/04 20:31:17;;;;;;;33.20;17.30;;;;;;;2.10;61.93;99616.69;10349661;28;20233;-36
2022/12/04 20:36:20;;;;;;;33.13;17.27;;;;;;;2.39;61.88;99628.31;10334215;28;20270;-36
2022/12/04 20:41:23;;;;;;;35.83;17.47;;;;;;;2.60;61.88;99629.03;10355539;28;20241;-36
2022/12/04 20:46:30;;;;;;;34.87;17.53;;;;;;;3.14;60.41;99611.03;10354019;28;20237;-37
2022/12/04 20:51:35;;;;;;;37.23;18.70;;;;;;;2.12;62.60;99625.31;10348093;28;20276;-36
2022/12/04 20:56:37;;;;;;;36.87;18.43;;;;;;;1.89;62.63;99618.53;10335039;28;20240;-36
2022/12/04 21:01:39;;;;;;;40.17;17.73;;;;;;;2.47;61.80;99624.03;10354331;28;20232;-36
2022/12/04 21:06:41;;;;;;;30.73;17.03;;;;;;;3.25;60.87;99597.66;10355147;28;20739;-36
2022/12/04 21:11:49;;;;;;;26.07;15.60;;;;;;;1.81;61.92;99595.47;10354652;28;20235;-36
2022/12/04 21:16:50;;;;;;;31.33;16.07;;;;;;;2.52;61.02;99603.31;10348180;28;20232;-36
2022/12/04 21:21:53;;;;;;;30.53;16.90;;;;;;;2.77;60.85;99605.56;10351884;28;20599;-36
2022/12/04 21:26:55;;;;;;;32.17;15.87;;;;;;;2.78;60.36;99599.31;10336954;28;20248;-36
2022/12/04 21:31:57;;;;;;;40.60;16.97;;;;;;;2.49;61.33;99587.75;10341712;28;20815;-37
2022/12/04 21:36:58;;;;;;;31.33;16.87;;;;;;;3.33;59.73;99598.75;10345209;28;20259;-36
2022/12/04 21:47:21;;;;;;;33.20;17.57;;;;;;;2.13;62.21;99627.00;10344305;28;20243;-36
2022/12/04 21:52:23;;;;;;;39.33;18.57;;;;;;;2.48;61.98;99628.31;10351498;28;20294;-36
2022/12/04 21:57:27;;;;;;;32.67;18.17;;;;;;;3.67;58.36;99630.88;10347934;28;20236;-36
2022/12/04 22:02:29;;;;;;;34.13;17.20;;;;;;;3.31;59.33;99627.16;10334640;28;20641;-36
2022/12/04 22:07:31;;;;;;;35.93;18.00;;;;;;;3.51;59.23;99647.31;10346989;28;20236;-37
2022/12/04 22:12:33;;;;;;;40.63;18.40;;;;;;;3.86;58.16;99653.81;10350314;28;20239;-37
2022/12/04 22:17:51;;;;;;;33.87;17.47;;;;;;;3.50;58.70;99666.84;10347680;28;20236;-36
2022/12/04 22:22:53;;;;;;;36.40;17.60;;;;;;;3.20;59.10;99663.38;10353684;28;20626;-33
2022/12/04 22:27:56;;;;;;;40.50;18.00;;;;;;;3.43;59.00;99689.56;10359980;28;20239;-34
2022/12/04 22:32:58;;;;;;;38.77;19.00;;;;;;;3.75;58.01;99705.09;10358102;28;20244;-34
2022/12/04 22:38:00;;;;;;;41.60;17.60;;;;;;;3.64;58.54;99705.25;10359795;28;20706;-33
2022/12/04 22:43:01;;;;;;;36.37;19.10;;;;;;;4.43;56.50;99740.38;10351355;28;20243;-35
2022/12/04 22:48:03;;;;;;;37.70;18.90;;;;;;;3.07;59.50;99694.53;10354525;28;20271;-34
2022/12/04 22:53:05;;;;;;;39.30;19.37;;;;;;;3.18;58.82;99681.19;10344548;28;20710;-34
2022/12/04 22:58:07;;;;;;;43.43;21.03;;;;;;;2.83;60.29;99713.38;10351135;28;20236;-34
2022/12/04 23:03:09;;;;;;;50.27;22.00;;;;;;;3.03;59.45;99698.44;10349814;28;20247;-34
2022/12/04 23:08:10;;;;;;;56.20;22.40;;;;;;;3.95;57.96;99713.00;10357455;28;20589;-34
2022/12/04 23:13:12;;;;;;;41.33;21.00;;;;;;;2.74;60.08;99699.19;10354049;28;20243;-36
2022/12/04 23:18:14;;;;;;;51.73;21.50;;;;;;;4.17;57.29;99730.34;10351737;28;20248;-37
2022/12/04 23:23:16;;;;;;;85.30;22.23;;;;;;;3.15;59.55;99720.28;10350261;28;20239;-36
2022/12/04 23:28:17;;;;;;;53.27;22.17;;;;;;;4.30;57.19;99752.06;10354877;28;20228;-36
2022/12/04 23:33:19;;;;;;;52.97;21.23;;;;;;;2.90;59.94;99702.13;10353837;28;20236;-36
2022/12/04 23:38:22;;;;;;;58.63;22.03;;;;;;;3.84;58.71;99746.59;10349782;28;20244;-36
2022/12/04 23:43:24;;;;;;;58.23;21.90;;;;;;;3.29;58.73;99735.75;10352321;28;20233;-35
2022/12/04 23:48:26;;;;;;;52.43;22.43;;;;;;;2.98;60.20;99761.47;10350595;28;20240;-37
2022/12/04 23:53:28;;;;;;;51.63;21.90;;;;;;;2.76;60.30;99752.72;10349858;28;20244;-36
2022/12/04 23:58:31;;;;;;;51.60;20.73;;;;;;;5.31;55.26;99838.88;10354986;28;20248;-36
